Time;durP1;ratioP1;P1;durP2;ratioP2;P2;SDS_P1;SDS_P2;PMS_P1;PMS_P2;Temp;Humidity;BMP_temperature;BMP_pressure;BME280_temperature;BME280_humidity;BME280_pressure;Samples;Min_cycle;Max_cycle;Signal;HPM_P1;HPM_P2
2023/10/17 00:09:24;;;;;;;4.10;1.30;;;;;;;7.56;63.47;100725.72;10220108;28;20054;-59
2023/10/17 00:14:35;;;;;;;4.07;1.73;;;;;;;7.51;63.37;100722.66;10221557;28;20134;-60
2023/10/17 00:19:36;;;;;;;3.58;1.35;;;;;;;7.47;64.21;100722.09;10219822;28;20102;-60
2023/10/17 00:24:38;;;;;;;4.63;1.90;;;;;;;7.41;63.41;100727.19;10220478;28;20047;-59
2023/10/17 00:29:40;;;;;;;2.63;1.30;;;;;;;7.29;64.02;100719.34;10218257;28;20055;-59
2023/10/17 00:34:41;;;;;;;3.20;1.92;;;;;;;7.23;64.35;100711.91;10220664;28;20054;-57
2023/10/17 00:39:46;;;;;;;4.35;1.38;;;;;;;7.20;63.92;100700.66;10221479;28;20059;-58
2023/10/17 00:44:48;;;;;;;4.18;2.15;;;;;;;7.16;63.70;100700.09;10221972;28;20103;-58
2023/10/17 00:49:50;;;;;;;5.28;1.90;;;;;;;7.08;64.01;100692.81;10225236;28;20055;-57
2023/10/17 00:54:59;;;;;;;5.50;2.25;;;;;;;6.95;64.50;100698.47;10216166;28;20327;-58
2023/10/17 01:00:16;;;;;;;4.85;2.00;;;;;;;6.83;64.64;100699.63;10223787;28;20597;-58
2023/10/17 01:05:18;;;;;;;8.47;1.93;;;;;;;6.78;63.99;100709.88;10217790;28;20047;-58
2023/10/17 01:10:24;;;;;;;5.25;1.75;;;;;;;6.52;65.24;100712.31;10219780;28;20044;-58
2023/10/17 01:15:29;;;;;;;2.63;1.63;;;;;;;6.41;64.52;100709.75;10221345;28;20055;-58
2023/10/17 01:20:32;;;;;;;3.05;1.30;;;;;;;6.46;65.12;100695.00;10227901;28;20052;-57
2023/10/17 01:25:41;;;;;;;3.83;2.10;;;;;;;6.49;65.16;100691.22;10223327;28;20062;-57
2023/10/17 01:30:42;;;;;;;6.47;2.28;;;;;;;6.38;64.92;100686.88;10218524;28;20047;-58
2023/10/17 01:35:44;;;;;;;3.58;2.10;;;;;;;6.30;64.98;100689.38;10222942;28;20408;-60
2023/10/17 01:40:46;;;;;;;4.07;1.77;;;;;;;6.30;65.26;100686.69;10223531;28;20399;-61
2023/10/17 01:45:48;;;;;;;5.25;2.00;;;;;;;6.28;65.07;100702.00;10221639;28;20048;-59
2023/10/17 01:50:50;;;;;;;8.82;2.08;;;;;;;6.20;65.14;100704.53;10216139;28;20043;-59
2023/10/17 01:56:06;;;;;;;4.50;2.08;;;;;;;6.15;65.59;100707.63;10216612;28;20518;-61
2023/10/17 02:01:13;;;;;;;8.27;1.63;;;;;;;6.15;65.83;100705.81;10210971;28;20102;-59
2023/10/17 02:06:14;;;;;;;3.88;1.77;;;;;;;6.21;66.02;100695.56;10222362;28;20045;-60
2023/10/17 02:11:24;;;;;;;3.63;1.88;;;;;;;6.23;65.57;100693.59;10223080;28;20443;-61
2023/10/17 02:16:33;;;;;;;4.97;1.55;;;;;;;6.29;66.00;100679.69;10218315;28;20557;-60
2023/10/17 02:21:43;;;;;;;3.55;1.52;;;;;;;6.33;65.51;100694.44;10220738;28;20499;-60
2023/10/17 02:26:55;;;;;;;8.38;1.67;;;;;;;6.33;65.67;100711.28;10218284;28;20071;-60
2023/10/17 02:31:58;;;;;;;5.25;1.55;;;;;;;6.30;65.99;100700.91;10217447;28;20047;-62
2023/10/17 02:37:00;;;;;;;4.07;1.85;;;;;;;6.45;65.41;100685.31;10216204;28;20079;-60
2023/10/17 02:42:08;;;;;;;4.05;1.45;;;;;;;6.55;65.40;100671.94;10230861;28;20059;-59
2023/10/17 02:47:15;;;;;;;3.28;1.50;;;;;;;6.63;64.88;100671.22;10217913;28;20800;-59
2023/10/17 02:52:17;;;;;;;5.43;1.38;;;;;;;6.64;65.66;100664.94;10219517;28;20047;-59
2023/10/17 02:57:20;;;;;;;2.97;1.70;;;;;;;6.73;65.42;100666.72;10218597;28;20043;-58
2023/10/17 03:02:30;;;;;;;6.95;1.70;;;;;;;6.80;65.58;100664.34;10222642;28;20043;-58
2023/10/17 03:07:34;;;;;;;3.47;1.33;;;;;;;6.81;65.97;100660.66;10228927;28;20047;-58
2023/10/17 03:12:50;;;;;;;3.17;1.20;;;;;;;6.82;65.98;100657.84;10223235;28;20039;-59
2023/10/17 03:17:54;;;;;;;2.00;1.08;;;;;;;6.88;66.06;100657.28;10227450;28;20131;-59
2023/10/17 03:22:55;;;;;;;4.97;1.88;;;;;;;6.95;65.49;100658.38;10223303;28;20143;-58
2023/10/17 03:27:58;;;;;;;4.43;1.33;;;;;;;6.93;65.69;100643.47;10225393;28;20078;-59
2023/10/17 03:38:04;;;;;;;4.18;2.15;;;;;;;6.91;65.96;100642.78;10217240;28;20047;-58
2023/10/17 03:43:11;;;;;;;4.57;1.35;;;;;;;6.91;66.17;100638.28;10218739;28;20047;-58
2023/10/17 03:48:14;;;;;;;2.95;1.70;;;;;;;6.95;65.90;100644.16;10219643;28;20070;-58
2023/10/17 03:53:18;;;;;;;5.15;2.13;;;;;;;6.92;66.44;100637.28;10221953;28;20059;-60
2023/10/17 04:03:30;;;;;;;4.03;1.08;;;;;;;7.05;66.36;100636.97;10225399;28;20446;-60
2023/10/17 04:08:37;;;;;;;4.82;1.60;;;;;;;7.06;66.18;100619.94;10222553;28;20043;-60
2023/10/17 04:13:39;;;;;;;2.63;1.60;;;;;;;7.16;66.02;100625.25;10228057;28;20075;-60
2023/10/17 04:18:41;;;;;;;3.25;1.83;;;;;;;7.18;66.47;100633.13;10224796;28;20438;-59
2023/10/17 04:23:43;;;;;;;5.72;1.83;;;;;;;7.27;65.63;100642.94;10225993;28;20491;-58
2023/10/17 04:28:51;;;;;;;6.10;1.88;;;;;;;7.29;65.61;100627.59;10231096;28;20047;-68
2023/10/17 04:34:06;;;;;;;3.03;1.65;;;;;;;7.35;65.44;100638.53;10235248;28;20135;-59
2023/10/17 04:44:25;;;;;;;3.40;1.90;;;;;;;7.40;66.13;100639.91;10220019;28;20054;-58
2023/10/17 04:49:30;;;;;;;4.72;1.35;;;;;;;7.43;66.02;100644.97;10223968;28;20135;-59
2023/10/17 06:19:39;;;;;;;4.43;1.55;;;;;;;7.60;65.29;100662.91;10222386;28;20109;-63
2023/10/17 06:34:47;;;;;;;3.58;1.63;;;;;;;7.47;65.98;100657.91;10220924;28;20043;-64
2023/10/17 06:39:49;;;;;;;4.72;1.60;;;;;;;7.58;65.51;100658.69;10217533;28;20499;-63
2023/10/17 06:44:54;;;;;;;2.08;1.02;;;;;;;7.61;65.92;100669.94;10215628;28;20044;-62
2023/10/17 06:55:07;;;;;;;3.83;1.73;;;;;;;7.90;64.77;100656.41;10214942;28;20058;-63
2023/10/17 07:00:28;;;;;;;2.97;1.88;;;;;;;7.93;65.23;100653.41;10217649;28;20126;-64
2023/10/17 07:05:35;;;;;;;5.93;1.70;;;;;;;8.07;65.00;100644.00;10214670;28;20126;-63
2023/10/17 07:15:39;;;;;;;3.95;1.40;;;;;;;8.22;65.27;100646.16;10216792;28;20043;-61
2023/10/17 07:26:01;;;;;;;9.50;4.53;;;;;;;8.43;65.35;100637.81;10214419;28;20051;-60
2023/10/17 07:31:03;;;;;;;8.27;2.58;;;;;;;8.50;65.22;100645.09;10219556;28;20459;-59
2023/10/17 07:36:06;;;;;;;5.38;2.03;;;;;;;8.60;65.05;100638.81;10219382;28;20078;-58
2023/10/17 07:41:13;;;;;;;4.10;1.63;;;;;;;8.68;64.92;100649.59;10213110;28;20058;-60
2023/10/17 07:46:17;;;;;;;3.67;1.88;;;;;;;8.66;65.04;100643.53;10224407;28;21370;-59
2023/10/17 07:51:22;;;;;;;4.97;2.55;;;;;;;8.72;65.14;100650.94;10224915;28;20138;-59
2023/10/17 07:56:25;;;;;;;5.88;1.70;;;;;;;8.71;65.11;100652.81;10226708;28;20054;-60
2023/10/17 08:01:38;;;;;;;4.95;1.90;;;;;;;8.84;65.11;100656.91;10220480;28;20051;-58
2023/10/17 08:06:40;;;;;;;3.78;2.03;;;;;;;9.02;64.93;100656.84;10224308;28;20039;-59
2023/10/17 08:11:42;;;;;;;2.60;1.35;;;;;;;9.13;64.94;100662.78;10226700;28;20057;-59
2023/10/17 08:16:44;;;;;;;3.33;1.80;;;;;;;9.40;64.53;100668.09;10231681;28;20138;-59
2023/10/17 08:22:20;;;;;;;3.25;1.25;;;;;;;9.50;64.47;100664.31;10221939;28;20047;-59
2023/10/17 08:27:17;;;;;;;4.32;1.15;;;;;;;9.71;64.15;100655.81;10224057;28;20039;-59
2023/10/17 08:37:28;;;;;;;3.05;0.82;;;;;;;10.12;63.11;100663.16;10221810;28;20059;-60
2023/10/17 08:42:30;;;;;;;2.53;0.83;;;;;;;10.30;62.96;100677.31;10216523;28;21188;-59
2023/10/17 08:47:32;;;;;;;2.20;0.75;;;;;;;10.50;62.58;100666.22;10220888;28;20039;-59
2023/10/17 08:52:35;;;;;;;3.17;1.00;;;;;;;10.66;62.15;100668.94;10220425;28;20075;-59
2023/10/17 08:57:37;;;;;;;2.38;0.68;;;;;;;10.75;61.85;100650.09;10219763;28;20125;-59
2023/10/17 09:02:48;;;;;;;5.68;0.88;;;;;;;10.88;61.43;100656.66;10222428;28;20146;-59
2023/10/17 09:07:55;;;;;;;3.25;0.80;;;;;;;11.08;61.11;100648.22;10218677;28;20055;-58
2023/10/17 09:18:27;;;;;;;2.53;1.50;;;;;;;11.39;60.28;100629.41;10245097;28;20098;-59
2023/10/17 09:23:30;;;;;;;3.78;0.80;;;;;;;11.61;59.87;100624.28;10215684;28;20594;-59
2023/10/17 09:28:32;;;;;;;6.03;1.10;;;;;;;11.72;59.53;100629.28;10244035;28;20053;-60
2023/10/17 09:33:36;;;;;;;3.15;0.82;;;;;;;11.79;59.44;100624.00;10211958;28;20043;-59
2023/10/17 09:38:43;;;;;;;3.50;0.90;;;;;;;11.99;59.28;100637.91;10212408;28;20448;-60
2023/10/17 09:43:51;;;;;;;2.60;1.00;;;;;;;12.12;58.62;100627.38;10224033;28;20051;-63
2023/10/17 09:48:53;;;;;;;3.03;1.00;;;;;;;12.22;58.79;100624.44;10216999;28;20047;-62
2023/10/17 09:53:58;;;;;;;3.03;0.90;;;;;;;12.35;58.63;100618.44;10213223;28;20242;-63
2023/10/17 09:59:05;;;;;;;2.63;0.75;;;;;;;12.43;58.31;100618.38;10216305;28;20502;-60
2023/10/17 10:04:07;;;;;;;;;;;;;;;12.51;58.24;100621.00;10218822;28;20054;-63
2023/10/17 10:09:15;;;;;;;4.85;2.55;;;;;;;12.63;58.22;100618.69;10215785;28;19970;-61
2023/10/17 10:14:23;;;;;;;2.53;1.10;;;;;;;12.65;57.70;100622.06;10208265;28;20055;-62
2023/10/17 10:19:44;;;;;;;11.02;5.05;;;;;;;12.80;57.58;100614.84;10212663;28;20762;-63
2023/10/17 10:24:46;;;;;;;3.53;2.15;;;;;;;12.92;57.42;100609.00;10211897;28;20054;-63
2023/10/17 10:29:54;;;;;;;1.83;0.77;;;;;;;13.04;57.10;100610.19;10213654;28;20051;-65
2023/10/17 10:34:55;;;;;;;3.07;0.70;;;;;;;13.03;57.42;100613.91;10209797;28;20054;-61
2023/10/17 10:40:17;;;;;;;3.28;0.70;;;;;;;13.24;56.54;100592.41;10212960;28;20047;-62
2023/10/17 10:45:50;;;;;;;1.27;0.60;;;;;;;13.44;56.11;100589.16;10208441;28;20051;-61
2023/10/17 10:50:55;;;;;;;1.65;1.00;;;;;;;13.49;55.60;100582.16;10215389;28;20172;-63
2023/10/17 10:56:02;;;;;;;1.20;0.50;;;;;;;13.47;55.09;100581.53;10210261;28;20074;-59
2023/10/17 11:01:07;;;;;;;1.80;0.97;;;;;;;13.43;54.68;100568.59;10210203;28;20309;-60
2023/10/17 11:06:10;;;;;;;1.02;0.47;;;;;;;13.57;53.98;100554.22;10214277;28;20098;-60
2023/10/17 11:11:16;;;;;;;2.30;0.75;;;;;;;13.54;53.32;100553.75;10219720;28;20057;-61
2023/10/17 11:16:24;;;;;;;1.40;0.80;;;;;;;13.48;53.30;100563.44;10218258;28;20062;-60
2023/10/17 11:21:26;;;;;;;3.90;0.55;;;;;;;13.36;53.57;100546.91;10253130;28;20506;-59
2023/10/17 11:26:30;;;;;;;3.30;0.50;;;;;;;13.22;53.36;100539.63;10237272;28;20039;-59
2023/10/17 11:31:32;;;;;;;2.72;0.80;;;;;;;13.20;53.09;100530.91;10242073;28;20490;-62
2023/10/17 11:36:48;;;;;;;3.00;0.50;;;;;;;13.16;53.17;100508.00;10247402;28;20051;-59
2023/10/17 11:41:54;;;;;;;2.20;0.60;;;;;;;13.23;53.04;100507.06;10239899;28;20048;-60
2023/10/17 11:47:03;;;;;;;;;;;;;;;13.52;53.07;100510.72;10238929;28;20047;-60
2023/10/17 11:52:09;;;;;;;;;;;;;;;13.54;53.01;100499.72;10236687;28;19981;-61
2023/10/17 11:57:12;;;;;;;2.70;0.40;;;;;;;13.78;52.39;100491.22;10251845;28;19926;-60
2023/10/17 12:02:15;;;;;;;1.17;0.57;;;;;;;13.93;51.70;100474.13;10262125;28;20087;-59
2023/10/17 12:07:17;;;;;;;1.15;0.50;;;;;;;14.09;51.17;100477.38;10243752;28;20071;-61
2023/10/17 12:12:19;;;;;;;1.50;0.40;;;;;;;14.13;50.99;100466.19;10276309;28;20113;-61
2023/10/17 12:17:23;;;;;;;3.05;0.88;;;;;;;14.21;50.58;100463.31;10259087;28;20051;-60
2023/10/17 12:22:25;;;;;;;1.58;0.40;;;;;;;14.27;50.19;100468.75;10257209;28;20051;-60
2023/10/17 12:27:26;;;;;;;1.58;0.70;;;;;;;14.38;50.15;100477.38;10246974;28;20073;-60
2023/10/17 12:32:31;;;;;;;1.65;0.47;;;;;;;14.49;49.85;100474.13;10272532;28;20061;-60
2023/10/17 12:37:43;;;;;;;1.60;0.52;;;;;;;14.61;49.73;100474.41;10262282;28;20376;-59
2023/10/17 12:42:49;;;;;;;1.55;0.40;;;;;;;14.70;49.41;100465.13;10266901;28;25714;-59
2023/10/17 12:47:51;;;;;;;0.90;0.40;;;;;;;14.86;48.87;100453.13;10293490;28;20124;-59
2023/10/17 12:52:53;;;;;;;0.60;0.30;;;;;;;15.07;48.37;100458.41;10267717;28;20042;-61
2023/10/17 12:57:54;;;;;;;0.65;0.30;;;;;;;15.24;48.13;100452.63;10259302;28;20055;-60
2023/10/17 13:02:56;;;;;;;2.50;0.50;;;;;;;15.47;47.22;100450.38;10255158;28;20077;-60
2023/10/17 13:07:58;;;;;;;2.65;0.50;;;;;;;15.60;47.12;100436.03;10276206;28;20082;-60
2023/10/17 13:12:59;;;;;;;1.27;0.30;;;;;;;15.85;46.79;100438.16;10278283;28;20039;-61
2023/10/17 13:18:03;;;;;;;1.00;0.45;;;;;;;16.09;46.22;100431.25;10259113;28;20070;-59
2023/10/17 13:23:05;;;;;;;1.35;0.32;;;;;;;16.36;45.60;100428.50;10260041;28;20039;-60
2023/10/17 13:28:07;;;;;;;1.23;0.50;;;;;;;16.62;45.26;100425.72;10259474;28;20047;-61
2023/10/17 13:33:09;;;;;;;1.35;0.43;;;;;;;16.90;44.57;100426.47;10241064;28;20047;-60
2023/10/17 13:38:10;;;;;;;0.75;0.47;;;;;;;17.09;44.12;100416.56;10243421;28;20051;-60
2023/10/17 13:43:13;;;;;;;1.23;0.30;;;;;;;17.12;44.01;100416.97;10265182;28;20055;-61
2023/10/17 13:48:14;;;;;;;0.80;0.50;;;;;;;17.36;43.12;100409.09;10275573;28;20058;-61
2023/10/17 13:53:16;;;;;;;2.75;0.65;;;;;;;17.45;43.00;100408.59;10256988;28;20074;-61
2023/10/17 13:58:18;;;;;;;1.63;0.40;;;;;;;17.38;42.88;100402.38;10250173;28;20059;-61
2023/10/17 14:03:22;;;;;;;1.45;0.30;;;;;;;17.40;42.73;100396.75;10259724;28;20056;-61
2023/10/17 14:08:25;;;;;;;1.83;0.45;;;;;;;17.41;42.70;100391.06;10257636;28;20119;-61
2023/10/17 14:13:28;;;;;;;1.02;0.38;;;;;;;17.44;42.53;100389.81;10216786;28;20111;-60
2023/10/17 14:18:40;;;;;;;1.25;0.30;;;;;;;17.32;42.13;100396.97;10218067;28;20497;-62
2023/10/17 14:24:07;;;;;;;3.50;0.40;;;;;;;17.30;42.22;100397.22;10219297;28;20039;-60
2023/10/17 14:29:04;;;;;;;1.83;0.38;;;;;;;17.36;42.25;100390.91;10221685;28;20047;-58
2023/10/17 14:34:09;;;;;;;2.03;0.50;;;;;;;17.43;41.75;100385.41;10219250;28;20058;-59
2023/10/17 14:39:10;;;;;;;1.08;0.52;;;;;;;17.43;41.75;100386.25;10215883;28;20047;-57
2023/10/17 14:44:12;;;;;;;1.80;0.65;;;;;;;17.41;41.68;100376.66;10221570;28;20047;-59
2023/10/17 14:49:14;;;;;;;1.13;0.52;;;;;;;17.48;41.48;100371.19;10214448;28;20134;-58
2023/10/17 14:54:15;;;;;;;4.07;0.50;;;;;;;17.48;41.42;100380.16;10214680;28;20135;-57
2023/10/17 14:59:20;;;;;;;0.93;0.40;;;;;;;17.54;41.36;100370.28;10223558;28;20062;-57
2023/10/17 15:04:22;;;;;;;1.83;0.40;;;;;;;17.49;41.27;100351.91;10216397;28;20039;-56
2023/10/17 15:09:26;;;;;;;2.05;0.30;;;;;;;17.62;41.23;100361.84;10218255;28;20051;-59
2023/10/17 15:14:29;;;;;;;0.80;0.47;;;;;;;17.84;40.81;100354.97;10212061;28;20063;-58
2023/10/17 15:19:30;;;;;;;3.00;0.55;;;;;;;17.88;40.48;100358.09;10215944;28;20050;-62
2023/10/17 15:24:32;;;;;;;1.80;0.30;;;;;;;17.80;40.52;100350.19;10217553;28;20491;-60
2023/10/17 15:29:34;;;;;;;0.80;0.40;;;;;;;17.51;40.89;100357.13;10212192;28;20051;-60
2023/10/17 15:34:35;;;;;;;2.35;0.30;;;;;;;17.19;41.01;100352.56;10215637;28;20040;-61
2023/10/17 15:39:37;;;;;;;1.65;0.40;;;;;;;16.90;41.29;100353.16;10211377;28;20114;-61
2023/10/17 15:44:40;;;;;;;2.85;0.85;;;;;;;16.60;41.42;100354.53;10224267;28;20122;-60
2023/10/17 15:49:42;;;;;;;1.40;0.70;;;;;;;16.30;41.99;100365.09;10220368;28;20497;-62
2023/10/17 15:54:47;;;;;;;0.63;0.38;;;;;;;16.11;41.91;100349.69;10219478;28;20035;-62
2023/10/17 15:59:52;;;;;;;3.95;0.80;;;;;;;15.90;42.28;100345.38;10221618;28;20066;-61
2023/10/17 16:04:54;;;;;;;1.73;0.30;;;;;;;15.58;42.76;100331.59;10219113;28;20133;-62
2023/10/17 16:09:55;;;;;;;1.33;0.63;;;;;;;15.37;43.13;100346.19;10223225;28;20053;-61
2023/10/17 16:14:56;;;;;;;6.60;0.60;;;;;;;15.15;43.56;100349.09;10226928;28;20040;-61
2023/10/17 16:19:58;;;;;;;1.23;0.50;;;;;;;14.90;43.98;100364.22;10228146;28;20055;-60
2023/10/17 16:25:00;;;;;;;6.75;0.85;;;;;;;14.62;44.34;100367.88;10231010;28;20051;-60
2023/10/17 16:30:05;;;;;;;2.10;0.50;;;;;;;14.39;45.03;100366.28;10233616;28;20162;-59
2023/10/17 16:35:07;;;;;;;3.03;0.70;;;;;;;14.17;45.27;100375.53;10217169;28;20384;-59
2023/10/17 16:40:11;;;;;;;1.42;0.55;;;;;;;13.95;45.51;100378.31;10218759;28;20051;-59
2023/10/17 16:45:14;;;;;;;5.20;0.75;;;;;;;13.74;45.80;100368.38;10225001;28;20407;-58
2023/10/17 16:50:17;;;;;;;3.10;0.88;;;;;;;13.54;46.39;100367.41;10218803;28;20601;-60
2023/10/17 16:55:19;;;;;;;7.28;0.73;;;;;;;13.30;46.69;100388.38;10224870;28;20073;-58
2023/10/17 17:00:21;;;;;;;1.67;0.50;;;;;;;13.10;47.04;100404.34;10219795;28;20054;-58
2023/10/17 17:05:22;;;;;;;5.40;1.00;;;;;;;13.00;47.07;100407.34;10218444;28;20110;-59
2023/10/17 17:10:25;;;;;;;5.75;1.42;;;;;;;12.79;47.16;100404.59;10220466;28;20047;-58
2023/10/17 17:15:27;;;;;;;2.40;0.80;;;;;;;12.57;47.86;100411.78;10209786;28;20503;-59
2023/10/17 17:20:29;;;;;;;3.75;0.63;;;;;;;12.37;48.11;100401.56;10223142;28;20526;-58
2023/10/17 17:25:30;;;;;;;4.40;0.68;;;;;;;12.21;47.97;100399.91;10222234;28;20054;-58
2023/10/17 17:30:33;;;;;;;2.10;0.60;;;;;;;12.09;48.38;100398.69;10228105;28;20057;-58
2023/10/17 17:35:35;;;;;;;2.25;0.60;;;;;;;11.93;49.12;100390.75;10250818;28;20047;-59
2023/10/17 17:40:36;;;;;;;3.63;1.10;;;;;;;11.77;49.27;100394.44;10251769;28;20055;-58
2023/10/17 17:45:41;;;;;;;3.63;1.30;;;;;;;11.62;49.24;100394.41;10219773;28;20043;-58
2023/10/17 17:50:43;;;;;;;2.55;0.95;;;;;;;11.47;49.57;100397.03;10224966;28;20055;-58
2023/10/17 17:55:48;;;;;;;3.38;1.45;;;;;;;11.36;49.98;100395.63;10249409;28;20054;-57
2023/10/17 18:00:51;;;;;;;3.65;0.98;;;;;;;11.17;50.20;100391.53;10220996;28;20506;-58
2023/10/17 18:05:53;;;;;;;4.10;0.70;;;;;;;10.97;50.67;100401.09;10216051;28;20046;-61
2023/10/17 18:10:56;;;;;;;3.45;1.23;;;;;;;10.75;51.16;100406.25;10233372;28;20053;-61
2023/10/17 18:15:57;;;;;;;1.35;0.70;;;;;;;10.51;51.73;100409.91;10219762;28;20111;-63
2023/10/17 18:21:09;;;;;;;6.70;1.25;;;;;;;10.44;51.98;100404.38;10218804;28;20048;-63
2023/10/17 18:26:16;;;;;;;4.93;1.02;;;;;;;10.31;51.73;100406.78;10226530;28;20406;-60
2023/10/17 18:31:19;;;;;;;2.05;1.30;;;;;;;10.13;52.13;100407.81;10213231;28;20515;-63
2023/10/17 18:36:20;;;;;;;5.03;2.25;;;;;;;10.03;52.53;100401.78;10218371;28;20430;-60
2023/10/17 18:41:22;;;;;;;3.55;1.92;;;;;;;9.93;52.90;100393.06;10213817;28;20047;-63
2023/10/17 18:46:23;;;;;;;4.97;2.00;;;;;;;9.80;53.24;100395.47;10209843;28;20507;-64
2023/10/17 18:51:26;;;;;;;9.68;2.55;;;;;;;9.64;53.62;100394.47;10234841;28;20074;-62
2023/10/17 18:56:28;;;;;;;6.20;3.33;;;;;;;9.48;53.95;100387.25;10215857;28;20054;-63
2023/10/17 19:01:30;;;;;;;6.07;2.70;;;;;;;9.33;54.42;100392.44;10251163;28;20145;-58
2023/10/17 19:06:33;;;;;;;6.60;3.95;;;;;;;9.24;54.57;100398.81;10217826;28;20126;-57
2023/10/17 19:11:34;;;;;;;6.88;3.92;;;;;;;9.14;54.98;100395.44;10212832;28;20503;-57
2023/10/17 19:16:36;;;;;;;4.68;3.30;;;;;;;9.05;54.94;100380.34;10218963;28;20043;-59
2023/10/17 19:21:42;;;;;;;16.23;5.22;;;;;;;8.93;55.46;100383.34;10217069;28;20054;-60
2023/10/17 19:26:44;;;;;;;7.47;4.20;;;;;;;8.86;55.45;100390.34;10212210;28;20058;-60
2023/10/17 19:31:49;;;;;;;9.73;4.88;;;;;;;8.76;55.91;100389.66;10209582;28;20410;-58
2023/10/17 19:36:51;;;;;;;8.50;3.35;;;;;;;8.66;56.27;100394.31;10214051;28;20043;-57
2023/10/17 19:41:52;;;;;;;7.72;3.35;;;;;;;8.57;56.35;100387.25;10224120;28;20043;-57
2023/10/17 19:46:54;;;;;;;8.43;2.83;;;;;;;8.52;56.55;100391.25;10222662;28;20142;-57
2023/10/17 19:51:55;;;;;;;4.55;2.40;;;;;;;8.47;56.76;100390.06;10220765;28;20050;-58
2023/10/17 19:56:57;;;;;;;5.10;3.00;;;;;;;8.43;57.03;100381.53;10223523;28;20057;-58
2023/10/17 20:02:00;;;;;;;5.72;2.60;;;;;;;8.36;57.25;100377.78;10221764;28;20050;-59
2023/10/17 20:07:01;;;;;;;4.57;1.70;;;;;;;8.30;57.28;100375.75;10231731;28;20106;-58
2023/10/17 20:12:05;;;;;;;3.35;1.67;;;;;;;8.21;57.43;100377.53;10225175;28;20498;-57
2023/10/17 20:17:07;;;;;;;4.75;1.88;;;;;;;8.20;57.26;100373.19;10223871;28;20062;-58
2023/10/17 20:22:10;;;;;;;5.13;1.70;;;;;;;8.16;57.34;100373.69;10222062;28;20398;-59
2023/10/17 20:27:12;;;;;;;5.63;2.00;;;;;;;8.03;58.21;100374.09;10226633;28;20044;-58
2023/10/17 20:32:16;;;;;;;5.40;1.80;;;;;;;8.07;58.03;100362.06;10226303;28;20055;-59
2023/10/17 20:37:18;;;;;;;4.38;1.92;;;;;;;8.02;57.89;100354.53;10219465;28;20051;-61
2023/10/17 20:42:19;;;;;;;6.68;2.92;;;;;;;7.98;57.88;100347.81;10220929;28;20043;-59
2023/10/17 20:47:21;;;;;;;9.13;3.78;;;;;;;7.94;57.77;100343.78;10229287;28;20053;-59
2023/10/17 20:52:23;;;;;;;6.28;2.53;;;;;;;7.88;58.62;100331.03;10219223;28;20050;-59
2023/10/17 20:57:24;;;;;;;4.50;2.38;;;;;;;7.86;58.79;100336.53;10226145;28;20133;-59
2023/10/17 21:02:26;;;;;;;7.35;2.63;;;;;;;7.90;58.02;100329.03;10227965;28;20058;-59
2023/10/17 21:07:28;;;;;;;8.40;2.72;;;;;;;7.94;58.93;100333.06;10221171;28;20741;-59
2023/10/17 21:12:32;;;;;;;3.08;1.52;;;;;;;7.94;58.74;100327.72;10221253;28;20051;-59
2023/10/17 21:17:34;;;;;;;7.05;1.75;;;;;;;8.03;58.81;100315.19;10222688;28;20063;-59
2023/10/17 21:22:36;;;;;;;6.20;2.80;;;;;;;8.06;58.40;100320.25;10222515;28;20052;-58
2023/10/17 21:27:38;;;;;;;4.68;2.03;;;;;;;8.01;58.47;100315.34;10219413;28;20521;-59
2023/10/17 21:32:43;;;;;;;8.18;2.33;;;;;;;7.97;58.49;100302.47;10220780;28;20083;-61
2023/10/17 21:37:47;;;;;;;5.85;2.35;;;;;;;7.87;58.56;100306.09;10220828;28;20110;-62
2023/10/17 21:42:54;;;;;;;5.55;2.30;;;;;;;7.74;58.76;100298.50;10218496;28;20135;-61
2023/10/17 21:47:55;;;;;;;4.43;1.63;;;;;;;7.64;58.63;100292.44;10219483;28;20044;-61
2023/10/17 21:52:57;;;;;;;3.10;1.65;;;;;;;7.56;59.45;100287.00;10218129;28;20047;-61
2023/10/17 21:57:59;;;;;;;4.50;2.00;;;;;;;7.52;59.32;100288.31;10224687;28;20046;-62
2023/10/17 22:03:01;;;;;;;11.43;3.00;;;;;;;7.47;59.87;100288.81;10221799;28;20055;-62
2023/10/17 22:08:04;;;;;;;6.72;2.60;;;;;;;7.42;59.72;100295.63;10225649;28;20048;-61
2023/10/17 22:13:07;;;;;;;6.25;2.83;;;;;;;7.32;59.45;100291.22;10223302;28;20044;-59
2023/10/17 22:18:09;;;;;;;5.40;2.10;;;;;;;7.25;59.42;100292.84;10225836;28;20055;-59
2023/10/17 22:23:11;;;;;;;5.32;3.20;;;;;;;7.19;60.15;100289.94;10221590;28;20051;-59
2023/10/17 22:28:13;;;;;;;3.33;1.80;;;;;;;7.11;60.47;100286.22;10221399;28;20039;-60
2023/10/17 22:33:14;;;;;;;4.55;2.17;;;;;;;7.09;60.14;100277.53;10220795;28;20043;-58
2023/10/17 22:38:16;;;;;;;4.95;2.40;;;;;;;7.03;60.44;100271.94;10216186;28;20051;-59
2023/10/17 22:43:17;;;;;;;5.60;2.10;;;;;;;7.00;60.47;100272.25;10221962;28;20058;-60
2023/10/17 22:48:18;;;;;;;5.20;2.20;;;;;;;6.90;60.50;100278.53;10224914;28;20064;-58
2023/10/17 22:53:21;;;;;;;1.95;1.40;;;;;;;6.89;60.21;100271.53;10225846;28;20039;-59
2023/10/17 22:58:23;;;;;;;4.40;1.92;;;;;;;6.89;61.06;100271.53;10225391;28;20051;-58
2023/10/17 23:03:25;;;;;;;3.67;1.58;;;;;;;6.87;60.91;100261.97;10226910;28;20048;-59
2023/10/17 23:08:27;;;;;;;2.35;1.50;;;;;;;6.84;61.46;100248.91;10223287;28;20562;-58
2023/10/17 23:13:28;;;;;;;3.88;1.38;;;;;;;6.79;60.81;100254.72;10223363;28;20502;-58
2023/10/17 23:18:30;;;;;;;6.88;1.42;;;;;;;6.73;60.90;100248.19;10227792;28;20495;-58
2023/10/17 23:23:32;;;;;;;3.03;1.42;;;;;;;6.72;61.22;100242.97;10224634;28;20051;-58
2023/10/17 23:28:34;;;;;;;3.40;1.65;;;;;;;6.62;61.03;100245.72;10244836;28;20050;-58
2023/10/17 23:33:35;;;;;;;3.85;1.17;;;;;;;6.59;61.86;100239.84;10228935;28;20067;-59
2023/10/17 23:38:37;;;;;;;4.47;1.77;;;;;;;6.51;61.36;100238.78;10240946;28;20051;-59
2023/10/17 23:43:38;;;;;;;2.67;1.73;;;;;;;6.46;61.22;100240.25;10228766;28;20038;-59
2023/10/17 23:48:40;;;;;;;5.22;1.30;;;;;;;6.40;61.78;100244.34;10247215;28;20142;-59
2023/10/17 23:53:41;;;;;;;1.98;1.25;;;;;;;6.43;62.07;100244.03;10234541;28;20507;-60
2023/10/17 23:58:43;;;;;;;3.90;1.08;;;;;;;6.44;62.07;100240.38;10231555;28;20042;-59
